RYR424 LGAV-LGSK
Flight info
| Callsign | RYR424 |
|---|---|
| Flight time | 0h 41m |
| Altitude | 16000 |
| Route | ROPOX M749 SIGFO |
| Aircraft | B738/M-SDE2E3FGHIRWXY/LB1 |
Departure
| Time | 2026-04-24 16:16 |
|---|---|
| Airport | Athens Eleftherios Venizelos International Airport (LGAV) |
Arrival
| Time | 2026-04-24 16:57 |
|---|---|
| Airport | Skiathos Island National Airport (LGSK) |
| Time | Latitude | Longitude | Altitude | Speed | Heading |
|---|---|---|---|---|---|
| 2026-04-24 15:22 | 37.93458 | 23.94705 | 301 ft | 0 kts | 306° |
| 2026-04-24 16:05 | 37.93443 | 23.94733 | 301 ft | 2 kts | 304° |
| 2026-04-24 16:05 | 37.93434 | 23.94751 | 300 ft | 2 kts | 301° |
| 2026-04-24 16:06 | 37.93425 | 23.94790 | 301 ft | 2 kts | 234° |
| 2026-04-24 16:06 | 37.93431 | 23.94799 | 299 ft | 1 kts | 218° |
| 2026-04-24 16:06 | 37.93432 | 23.94800 | 299 ft | 0 kts | 218° |
| 2026-04-24 16:11 | 37.93428 | 23.94795 | 300 ft | 2 kts | 218° |
| 2026-04-24 16:11 | 37.93377 | 23.94745 | 302 ft | 17 kts | 217° |
| 2026-04-24 16:12 | 37.93169 | 23.94594 | 301 ft | 17 kts | 184° |
| 2026-04-24 16:12 | 37.93048 | 23.94564 | 301 ft | 21 kts | 212° |
| 2026-04-24 16:12 | 37.92792 | 23.94322 | 303 ft | 22 kts | 217° |
| 2026-04-24 16:13 | 37.92671 | 23.94206 | 303 ft | 16 kts | 217° |
| 2026-04-24 16:13 | 37.92545 | 23.94309 | 306 ft | 11 kts | 128° |
| 2026-04-24 16:14 | 37.92499 | 23.94465 | 307 ft | 11 kts | 43° |
| 2026-04-24 16:14 | 37.92530 | 23.94495 | 308 ft | 0 kts | 37° |
| 2026-04-24 16:15 | 37.93078 | 23.95016 | 293 ft | 115 kts | 37° |
| 2026-04-24 16:16 | 37.94764 | 23.96659 | 1033 ft | 161 kts | 40° |
| 2026-04-24 16:16 | 37.95641 | 23.97573 | 1776 ft | 167 kts | 39° |
| 2026-04-24 16:17 | 37.98863 | 24.00610 | 2957 ft | 219 kts | 35° |
| 2026-04-24 16:17 | 38.01362 | 24.02969 | 3968 ft | 228 kts | 35° |
| 2026-04-24 16:18 | 38.03981 | 24.05306 | 5029 ft | 231 kts | 19° |
| 2026-04-24 16:18 | 38.07001 | 24.04366 | 6049 ft | 239 kts | 320° |
| 2026-04-24 16:18 | 38.08002 | 24.02658 | 6551 ft | 246 kts | 300° |
| 2026-04-24 16:19 | 38.09482 | 23.98454 | 7337 ft | 273 kts | 295° |
| 2026-04-24 16:19 | 38.10218 | 23.96237 | 8153 ft | 273 kts | 295° |
| 2026-04-24 16:20 | 38.11731 | 23.91745 | 9580 ft | 282 kts | 295° |
| 2026-04-24 16:20 | 38.13347 | 23.87029 | 10454 ft | 310 kts | 296° |
| 2026-04-24 16:20 | 38.14241 | 23.84438 | 10629 ft | 331 kts | 295° |
| 2026-04-24 16:21 | 38.16379 | 23.78907 | 11054 ft | 363 kts | 311° |
| 2026-04-24 16:21 | 38.18296 | 23.76841 | 11597 ft | 365 kts | 332° |
| 2026-04-24 16:21 | 38.20655 | 23.75774 | 12207 ft | 367 kts | 351° |
| 2026-04-24 16:22 | 38.23235 | 23.75342 | 12847 ft | 371 kts | 354° |
| 2026-04-24 16:22 | 38.28404 | 23.74656 | 14122 ft | 379 kts | 354° |
| 2026-04-24 16:22 | 38.31036 | 23.74310 | 14755 ft | 382 kts | 354° |
| 2026-04-24 16:23 | 38.33725 | 23.73947 | 14661 ft | 389 kts | 354° |
| 2026-04-24 16:23 | 38.36396 | 23.73574 | 14622 ft | 383 kts | 354° |
| 2026-04-24 16:23 | 38.39026 | 23.73200 | 14600 ft | 379 kts | 354° |
| 2026-04-24 16:24 | 38.44229 | 23.72446 | 14607 ft | 376 kts | 353° |
| 2026-04-24 16:24 | 38.46846 | 23.72065 | 14760 ft | 381 kts | 353° |
| 2026-04-24 16:24 | 38.49444 | 23.71687 | 15467 ft | 380 kts | 353° |
| 2026-04-24 16:24 | 38.52075 | 23.71302 | 15598 ft | 377 kts | 353° |
| 2026-04-24 16:25 | 38.54687 | 23.70921 | 15800 ft | 377 kts | 353° |
| 2026-04-24 16:25 | 38.57300 | 23.70538 | 15981 ft | 380 kts | 353° |
| 2026-04-24 16:25 | 38.59942 | 23.70152 | 16000 ft | 381 kts | 353° |
| 2026-04-24 16:26 | 38.65038 | 23.69407 | 15764 ft | 356 kts | 353° |
| 2026-04-24 16:26 | 38.67453 | 23.69053 | 15663 ft | 343 kts | 353° |
| 2026-04-24 16:26 | 38.72034 | 23.68381 | 15479 ft | 320 kts | 353° |
| 2026-04-24 16:27 | 38.74215 | 23.68061 | 15388 ft | 310 kts | 353° |
| 2026-04-24 16:27 | 38.76325 | 23.67751 | 15312 ft | 301 kts | 353° |
| 2026-04-24 16:27 | 38.78374 | 23.67449 | 15174 ft | 293 kts | 352° |
| 2026-04-24 16:27 | 38.80260 | 23.66684 | 14877 ft | 290 kts | 326° |
| 2026-04-24 16:28 | 38.81582 | 23.64792 | 14528 ft | 290 kts | 295° |
| 2026-04-24 16:28 | 38.81970 | 23.62261 | 14195 ft | 292 kts | 270° |
| 2026-04-24 16:28 | 38.81562 | 23.57132 | 13452 ft | 288 kts | 258° |
| 2026-04-24 16:29 | 38.80641 | 23.54861 | 12830 ft | 293 kts | 226° |
| 2026-04-24 16:29 | 38.78905 | 23.53539 | 12321 ft | 294 kts | 194° |
| 2026-04-24 16:29 | 38.74866 | 23.53692 | 11386 ft | 292 kts | 172° |
| 2026-04-24 16:30 | 38.71020 | 23.55021 | 10439 ft | 288 kts | 142° |
| 2026-04-24 16:30 | 38.69788 | 23.56967 | 9988 ft | 282 kts | 109° |
| 2026-04-24 16:30 | 38.69566 | 23.59391 | 9512 ft | 273 kts | 78° |
| 2026-04-24 16:31 | 38.70077 | 23.61698 | 9049 ft | 268 kts | 59° |
| 2026-04-24 16:31 | 38.71331 | 23.63386 | 8557 ft | 262 kts | 28° |
| 2026-04-24 16:31 | 38.73012 | 23.64175 | 8128 ft | 258 kts | 5° |
| 2026-04-24 16:31 | 38.74801 | 23.64273 | 7693 ft | 257 kts | 1° |
| 2026-04-24 16:32 | 38.76583 | 23.64328 | 7261 ft | 256 kts | 1° |
| 2026-04-24 16:32 | 38.78355 | 23.64385 | 6867 ft | 253 kts | 1° |
| 2026-04-24 16:32 | 38.80105 | 23.64449 | 6470 ft | 251 kts | 1° |
| 2026-04-24 16:32 | 38.81825 | 23.64519 | 6055 ft | 252 kts | 1° |
| 2026-04-24 16:33 | 38.83571 | 23.64595 | 5782 ft | 250 kts | 1° |
| 2026-04-24 16:33 | 38.85304 | 23.64673 | 5514 ft | 248 kts | 1° |
| 2026-04-24 16:33 | 38.87022 | 23.64753 | 5247 ft | 247 kts | 2° |
| 2026-04-24 16:33 | 38.88745 | 23.64834 | 4958 ft | 247 kts | 2° |
| 2026-04-24 16:34 | 38.90460 | 23.64916 | 4677 ft | 246 kts | 2° |
| 2026-04-24 16:34 | 38.92173 | 23.64998 | 4387 ft | 246 kts | 2° |
| 2026-04-24 16:34 | 38.93878 | 23.65079 | 4096 ft | 246 kts | 2° |
| 2026-04-24 16:34 | 38.95584 | 23.65010 | 3813 ft | 245 kts | 354° |
| 2026-04-24 16:35 | 38.97256 | 23.64759 | 3533 ft | 245 kts | 353° |
| 2026-04-24 16:35 | 38.98943 | 23.64480 | 3262 ft | 245 kts | 353° |
| 2026-04-24 16:35 | 39.00633 | 23.64206 | 2987 ft | 244 kts | 353° |
| 2026-04-24 16:35 | 39.02284 | 23.63946 | 2917 ft | 235 kts | 353° |
| 2026-04-24 16:36 | 39.03876 | 23.63701 | 2832 ft | 226 kts | 353° |
| 2026-04-24 16:36 | 39.05409 | 23.63469 | 2761 ft | 217 kts | 353° |
| 2026-04-24 16:36 | 39.06883 | 23.63249 | 2685 ft | 209 kts | 353° |
| 2026-04-24 16:36 | 39.08299 | 23.63039 | 2556 ft | 202 kts | 353° |
| 2026-04-24 16:37 | 39.09677 | 23.62835 | 2317 ft | 202 kts | 353° |
| 2026-04-24 16:37 | 39.11068 | 23.62629 | 2068 ft | 201 kts | 353° |
| 2026-04-24 16:37 | 39.12004 | 23.62491 | 1908 ft | 200 kts | 353° |
| 2026-04-24 16:37 | 39.13792 | 23.62226 | 1782 ft | 189 kts | 353° |
| 2026-04-24 16:38 | 39.15084 | 23.61943 | 1685 ft | 188 kts | 337° |
| 2026-04-24 16:38 | 39.16014 | 23.60828 | 1625 ft | 185 kts | 296° |
| 2026-04-24 16:38 | 39.16182 | 23.59199 | 1607 ft | 189 kts | 260° |
| 2026-04-24 16:38 | 39.15552 | 23.57723 | 1619 ft | 192 kts | 231° |
| 2026-04-24 16:39 | 39.14675 | 23.56416 | 1592 ft | 193 kts | 222° |
| 2026-04-24 16:39 | 39.13582 | 23.55473 | 1610 ft | 190 kts | 213° |
| 2026-04-24 16:39 | 39.12473 | 23.54538 | 1623 ft | 192 kts | 214° |
| 2026-04-24 16:39 | 39.11353 | 23.53589 | 1604 ft | 192 kts | 214° |
| 2026-04-24 16:40 | 39.10240 | 23.52647 | 1598 ft | 191 kts | 214° |
| 2026-04-24 16:40 | 39.09145 | 23.51692 | 1584 ft | 189 kts | 221° |
| 2026-04-24 16:40 | 39.08564 | 23.50242 | 1609 ft | 189 kts | 270° |
| 2026-04-24 16:40 | 39.08863 | 23.48600 | 1624 ft | 191 kts | 290° |
| 2026-04-24 16:41 | 39.09335 | 23.47057 | 1579 ft | 179 kts | 307° |
| 2026-04-24 16:41 | 39.10340 | 23.46335 | 1624 ft | 168 kts | 359° |
| 2026-04-24 16:41 | 39.11455 | 23.46749 | 1618 ft | 167 kts | 23° |
| 2026-04-24 16:41 | 39.12461 | 23.47309 | 1586 ft | 151 kts | 25° |
| 2026-04-24 16:42 | 39.13336 | 23.47967 | 1476 ft | 144 kts | 35° |
| 2026-04-24 16:42 | 39.14173 | 23.48709 | 1116 ft | 147 kts | 30° |
| 2026-04-24 16:42 | 39.15106 | 23.49199 | 730 ft | 145 kts | 17° |
| 2026-04-24 16:42 | 39.16047 | 23.49612 | 387 ft | 141 kts | 19° |
| 2026-04-24 16:43 | 39.16956 | 23.50041 | 86 ft | 136 kts | 15° |
| 2026-04-24 16:43 | 39.17839 | 23.50418 | 61 ft | 134 kts | 17° |
| 2026-04-24 16:43 | 39.18673 | 23.50816 | 614 ft | 123 kts | 20° |
| 2026-04-24 16:43 | 39.19477 | 23.51222 | 1110 ft | 138 kts | 20° |
| 2026-04-24 16:44 | 39.20570 | 23.51562 | 1284 ft | 180 kts | 10° |
| 2026-04-24 16:44 | 39.21881 | 23.51872 | 1867 ft | 196 kts | 10° |
| 2026-04-24 16:44 | 39.23240 | 23.52194 | 1977 ft | 205 kts | 10° |
| 2026-04-24 16:44 | 39.24632 | 23.52540 | 1988 ft | 201 kts | 11° |
| 2026-04-24 16:45 | 39.25968 | 23.52876 | 2138 ft | 189 kts | 11° |
| 2026-04-24 16:45 | 39.27258 | 23.53185 | 2585 ft | 189 kts | 9° |
| 2026-04-24 16:45 | 39.28438 | 23.53842 | 3513 ft | 189 kts | 44° |
| 2026-04-24 16:45 | 39.28969 | 23.55351 | 3877 ft | 193 kts | 87° |
| 2026-04-24 16:46 | 39.28648 | 23.57047 | 3968 ft | 200 kts | 121° |
| 2026-04-24 16:46 | 39.27640 | 23.58245 | 3992 ft | 202 kts | 156° |
| 2026-04-24 16:46 | 39.26290 | 23.58755 | 4018 ft | 204 kts | 164° |
| 2026-04-24 16:46 | 39.24931 | 23.59222 | 4012 ft | 206 kts | 164° |
| 2026-04-24 16:47 | 39.23543 | 23.59700 | 4002 ft | 205 kts | 164° |
| 2026-04-24 16:47 | 39.22178 | 23.60171 | 3987 ft | 201 kts | 164° |
| 2026-04-24 16:47 | 39.20829 | 23.60637 | 4001 ft | 202 kts | 164° |
| 2026-04-24 16:47 | 39.19443 | 23.61109 | 4136 ft | 213 kts | 159° |
| 2026-04-24 16:48 | 39.18254 | 23.62219 | 4044 ft | 211 kts | 135° |
| 2026-04-24 16:48 | 39.17032 | 23.63098 | 3988 ft | 204 kts | 174° |
| 2026-04-24 16:48 | 39.15627 | 23.62820 | 4001 ft | 201 kts | 197° |
| 2026-04-24 16:48 | 39.14284 | 23.62316 | 3989 ft | 202 kts | 197° |
| 2026-04-24 16:49 | 39.12955 | 23.61778 | 3821 ft | 198 kts | 198° |
| 2026-04-24 16:49 | 39.11656 | 23.61249 | 3476 ft | 199 kts | 198° |
| 2026-04-24 16:49 | 39.10341 | 23.60709 | 3161 ft | 198 kts | 198° |
| 2026-04-24 16:49 | 39.09037 | 23.60171 | 2864 ft | 197 kts | 198° |
| 2026-04-24 16:50 | 39.08147 | 23.59805 | 2662 ft | 196 kts | 198° |
| 2026-04-24 16:50 | 39.06430 | 23.59099 | 2277 ft | 195 kts | 198° |
| 2026-04-24 16:50 | 39.05146 | 23.58571 | 2004 ft | 192 kts | 198° |
| 2026-04-24 16:50 | 39.03881 | 23.58050 | 1694 ft | 191 kts | 198° |
| 2026-04-24 16:51 | 39.02603 | 23.57522 | 1642 ft | 194 kts | 198° |
| 2026-04-24 16:51 | 39.01336 | 23.56950 | 1618 ft | 192 kts | 209° |
| 2026-04-24 16:51 | 39.00532 | 23.55689 | 1618 ft | 189 kts | 257° |
| 2026-04-24 16:51 | 39.00650 | 23.54030 | 1639 ft | 190 kts | 288° |
| 2026-04-24 16:52 | 39.01024 | 23.52421 | 1612 ft | 182 kts | 287° |
| 2026-04-24 16:52 | 39.01364 | 23.50914 | 1589 ft | 169 kts | 287° |
| 2026-04-24 16:52 | 39.01682 | 23.49494 | 1600 ft | 164 kts | 287° |
| 2026-04-24 16:52 | 39.02214 | 23.48245 | 1583 ft | 161 kts | 326° |
| 2026-04-24 16:53 | 39.03221 | 23.47583 | 1627 ft | 167 kts | 333° |
| 2026-04-24 16:53 | 39.04251 | 23.46940 | 1639 ft | 161 kts | 336° |
| 2026-04-24 16:53 | 39.05268 | 23.46341 | 1604 ft | 160 kts | 336° |
| 2026-04-24 16:53 | 39.06236 | 23.45778 | 1583 ft | 148 kts | 338° |
| 2026-04-24 16:54 | 39.07182 | 23.45769 | 1614 ft | 135 kts | 26° |
| 2026-04-24 16:54 | 39.08103 | 23.46245 | 1510 ft | 148 kts | 15° |
| 2026-04-24 16:54 | 39.09045 | 23.46621 | 1286 ft | 138 kts | 18° |
| 2026-04-24 16:54 | 39.09954 | 23.47003 | 852 ft | 138 kts | 18° |
| 2026-04-24 16:55 | 39.10890 | 23.47402 | 772 ft | 143 kts | 18° |
| 2026-04-24 16:55 | 39.11828 | 23.47799 | 786 ft | 142 kts | 17° |
| 2026-04-24 16:55 | 39.12772 | 23.48175 | 747 ft | 142 kts | 16° |
| 2026-04-24 16:55 | 39.13696 | 23.48581 | 608 ft | 143 kts | 18° |
| 2026-04-24 16:56 | 39.14627 | 23.49003 | 439 ft | 141 kts | 17° |
| 2026-04-24 16:56 | 39.15544 | 23.49387 | 287 ft | 137 kts | 17° |
| 2026-04-24 16:56 | 39.16446 | 23.49794 | 151 ft | 139 kts | 18° |
| 2026-04-24 16:56 | 39.17350 | 23.50215 | 36 ft | 136 kts | 19° |
| 2026-04-24 16:57 | 39.18147 | 23.50562 | 51 ft | 75 kts | 19° |
| 2026-04-24 16:57 | 39.18408 | 23.50678 | 59 ft | 19 kts | 21° |
| 2026-04-24 16:57 | 39.18501 | 23.50744 | 56 ft | 13 kts | 5° |
| 2026-04-24 16:57 | 39.18512 | 23.50713 | 60 ft | 9 kts | 221° |
| 2026-04-24 16:58 | 39.18436 | 23.50686 | 60 ft | 12 kts | 206° |
| 2026-04-24 16:58 | 39.18354 | 23.50654 | 56 ft | 12 kts | 199° |
| 2026-04-24 16:58 | 39.18270 | 23.50617 | 56 ft | 14 kts | 199° |
| 2026-04-24 16:58 | 39.18152 | 23.50564 | 50 ft | 23 kts | 199° |
| 2026-04-24 16:59 | 39.17980 | 23.50487 | 43 ft | 25 kts | 201° |
| 2026-04-24 16:59 | 39.17922 | 23.50375 | 41 ft | 4 kts | 253° |
| 2026-04-24 16:59 | 39.17938 | 23.50298 | 15 ft | 3 kts | 289° |
| 2026-04-24 17:00 | 39.17944 | 23.50277 | 41 ft | 3 kts | 289° |
| 2026-04-24 17:00 | 39.17950 | 23.50253 | 38 ft | 0 kts | 288° |